Time;durP1;ratioP1;P1;durP2;ratioP2;P2;SDS_P1;SDS_P2;PMS_P1;PMS_P2;Temp;Humidity;BMP_temperature;BMP_pressure;BME280_temperature;BME280_humidity;BME280_pressure;Samples;Min_cycle;Max_cycle;Signal;HPM_P1;HPM_P2
2022/05/10 00:00:13;;;;;;;6.50;5.00;;;;;;;;;;5043585;28;20033;-77
2022/05/10 00:02:42;;;;;;;6.05;5.05;;;;;;;;;;5036437;28;20027;-84
2022/05/10 00:05:08;;;;;;;7.47;5.43;;;;;;;;;;5045753;28;20155;-72
2022/05/10 00:07:35;;;;;;;7.78;5.20;;;;;;;;;;5040814;28;20719;-82
2022/05/10 00:10:02;;;;;;;9.18;5.03;;;;;;;;;;5041078;28;20079;-72
2022/05/10 00:12:28;;;;;;;7.30;5.13;;;;;;;;;;5041833;28;20104;-84
2022/05/10 00:14:57;;;;;;;6.32;5.10;;;;;;;;;;5035081;28;22326;-82
2022/05/10 00:17:27;;;;;;;9.15;5.38;;;;;;;;;;5041417;28;20174;-71
2022/05/10 00:19:54;;;;;;;6.85;5.47;;;;;;;;;;5039016;28;20021;-73
2022/05/10 00:22:20;;;;;;;10.00;5.30;;;;;;;;;;5037828;28;20025;-77
2022/05/10 00:24:50;;;;;;;8.00;5.50;;;;;;;;;;5033738;28;20022;-73
2022/05/10 00:27:16;;;;;;;8.07;5.60;;;;;;;;;;5035538;28;20029;-84
2022/05/10 00:29:42;;;;;;;5.63;5.03;;;;;;;;;;5033585;28;20107;-83
2022/05/10 00:32:09;;;;;;;6.57;5.15;;;;;;;;;;5036355;28;20391;-79
2022/05/10 00:34:37;;;;;;;9.52;5.70;;;;;;;;;;5037175;28;20029;-75
2022/05/10 00:37:03;;;;;;;8.85;5.43;;;;;;;;;;5033682;28;20020;-72
2022/05/10 00:39:29;;;;;;;7.05;6.10;;;;;;;;;;5037929;28;20033;-73
2022/05/10 00:42:02;;;;;;;8.00;5.80;;;;;;;;;;5040434;28;20096;-77
2022/05/10 00:44:54;;;;;;;9.02;6.22;;;;;;;;;;5039924;28;20044;-77
2022/05/10 00:47:28;;;;;;;8.23;5.65;;;;;;;;;;5041392;28;20039;-72
2022/05/10 00:50:16;;;;;;;11.40;5.72;;;;;;;;;;5034314;28;20037;-75
2022/05/10 00:52:42;;;;;;;8.23;6.50;;;;;;;;;;5047567;28;20396;-84
2022/05/10 00:55:11;;;;;;;9.13;5.88;;;;;;;;;;5041513;28;20039;-84
2022/05/10 00:57:43;;;;;;;10.38;5.97;;;;;;;;;;5039376;28;20062;-73
2022/05/10 01:00:14;;;;;;;8.18;5.82;;;;;;;;;;5044640;28;20392;-73
2022/05/10 01:02:47;;;;;;;6.28;5.65;;;;;;;;;;5042725;28;20142;-72
2022/05/10 01:05:32;;;;;;;8.75;5.88;;;;;;;;;;5036696;28;20079;-84
2022/05/10 01:08:04;;;;;;;8.43;5.53;;;;;;;;;;5041779;28;20037;-81
2022/05/10 01:10:33;;;;;;;8.85;5.85;;;;;;;;;;5039085;28;20029;-83
2022/05/10 01:13:24;;;;;;;7.63;6.03;;;;;;;;;;5042075;28;20025;-84
2022/05/10 01:15:57;;;;;;;8.20;6.13;;;;;;;;;;5038595;28;20383;-84
2022/05/10 01:18:23;;;;;;;10.63;5.80;;;;;;;;;;5038755;28;20026;-82
2022/05/10 01:20:51;;;;;;;8.27;6.22;;;;;;;;;;5037943;28;20026;-72
2022/05/10 01:23:39;;;;;;;8.95;5.88;;;;;;;;;;5033917;28;20025;-71
2022/05/10 01:26:13;;;;;;;10.80;6.50;;;;;;;;;;5044227;28;20033;-83
2022/05/10 01:28:41;;;;;;;;;;;;;;;;;;5034797;28;20399;-75
2022/05/10 01:31:10;;;;;;;8.55;5.85;;;;;;;;;;5048501;28;20294;-72
2022/05/10 01:33:42;;;;;;;7.82;6.78;;;;;;;;;;5038945;28;20474;-83
2022/05/10 01:36:20;;;;;;;10.32;6.22;;;;;;;;;;5041625;28;20060;-72
2022/05/10 01:39:12;;;;;;;7.47;6.07;;;;;;;;;;5037947;28;20056;-73
2022/05/10 01:41:44;;;;;;;12.93;6.97;;;;;;;;;;5025573;28;20096;-84
2022/05/10 01:44:30;;;;;;;9.32;7.05;;;;;;;;;;5037784;28;20033;-72
2022/05/10 01:47:16;;;;;;;9.18;6.05;;;;;;;;;;5036711;28;20029;-78
2022/05/10 01:49:48;;;;;;;7.70;6.47;;;;;;;;;;5043217;28;20128;-72
2022/05/10 01:52:29;;;;;;;10.57;6.68;;;;;;;;;;5050564;28;20025;-71
2022/05/10 01:55:05;;;;;;;11.82;6.53;;;;;;;;;;5033371;28;20028;-76
2022/05/10 01:57:32;;;;;;;11.60;7.20;;;;;;;;;;5034625;28;20028;-72
2022/05/10 02:00:12;;;;;;;9.07;6.63;;;;;;;;;;5042743;28;20020;-78
2022/05/10 02:02:40;;;;;;;10.98;6.32;;;;;;;;;;5044972;28;20503;-85
2022/05/10 02:05:10;;;;;;;12.18;7.60;;;;;;;;;;5036429;28;20084;-72
2022/05/10 02:07:37;;;;;;;8.80;6.75;;;;;;;;;;5042929;28;20087;-75
2022/05/10 02:10:09;;;;;;;10.45;6.45;;;;;;;;;;5033386;28;20044;-73
2022/05/10 02:12:39;;;;;;;8.55;6.68;;;;;;;;;;5038025;28;20029;-71
2022/05/10 02:15:18;;;;;;;11.05;6.70;;;;;;;;;;5037906;28;20029;-80
2022/05/10 02:17:50;;;;;;;9.88;6.68;;;;;;;;;;5045887;28;20491;-82
2022/05/10 02:20:16;;;;;;;12.30;7.50;;;;;;;;;;5053125;28;20029;-72
2022/05/10 02:22:42;;;;;;;12.02;6.82;;;;;;;;;;5044146;28;20048;-73
2022/05/10 02:25:08;;;;;;;10.32;6.78;;;;;;;;;;5046121;28;20029;-85
2022/05/10 02:27:55;;;;;;;9.00;6.80;;;;;;;;;;5046635;28;20040;-72
2022/05/10 02:30:23;;;;;;;10.55;7.22;;;;;;;;;;5040839;28;20120;-83
2022/05/10 02:33:09;;;;;;;11.05;6.20;;;;;;;;;;5037703;28;20067;-72
2022/05/10 02:35:38;;;;;;;11.65;6.55;;;;;;;;;;5049382;28;20017;-83
2022/05/10 02:38:05;;;;;;;8.45;6.60;;;;;;;;;;5049062;28;20029;-72
2022/05/10 02:40:34;;;;;;;9.38;6.70;;;;;;;;;;5042591;28;20104;-72
2022/05/10 02:43:00;;;;;;;10.68;6.85;;;;;;;;;;5047192;28;20025;-77
2022/05/10 02:45:28;;;;;;;12.95;7.25;;;;;;;;;;5049535;28;20030;-84
2022/05/10 02:47:54;;;;;;;10.93;6.82;;;;;;;;;;5041357;28;20621;-81
2022/05/10 02:50:23;;;;;;;9.45;7.20;;;;;;;;;;5037697;28;20503;-72
2022/05/10 02:52:49;;;;;;;10.40;7.22;;;;;;;;;;5042465;28;20021;-85
2022/05/10 02:55:17;;;;;;;10.48;7.20;;;;;;;;;;5048348;28;20029;-80
2022/05/10 02:57:45;;;;;;;8.45;7.18;;;;;;;;;;5035779;28;20380;-82
2022/05/10 03:00:11;;;;;;;11.27;6.95;;;;;;;;;;5039303;28;20022;-83
2022/05/10 03:02:43;;;;;;;10.57;6.80;;;;;;;;;;5040046;28;20104;-72
2022/05/10 03:05:12;;;;;;;10.30;7.15;;;;;;;;;;5045751;28;20025;-82
2022/05/10 03:07:38;;;;;;;10.43;7.05;;;;;;;;;;5039537;28;20068;-73
2022/05/10 03:10:05;;;;;;;12.40;8.15;;;;;;;;;;5041678;28;20038;-78
2022/05/10 03:12:31;;;;;;;10.75;7.68;;;;;;;;;;5034685;28;20021;-83
2022/05/10 03:14:58;;;;;;;11.10;7.43;;;;;;;;;;5034914;28;20029;-77
2022/05/10 03:17:24;;;;;;;13.20;7.47;;;;;;;;;;5038695;28;20029;-72
2022/05/10 03:19:50;;;;;;;10.18;7.53;;;;;;;;;;5045117;28;20025;-83
2022/05/10 03:22:16;;;;;;;16.25;8.15;;;;;;;;;;5038251;28;20025;-72
2022/05/10 03:24:42;;;;;;;19.65;8.85;;;;;;;;;;5044283;28;20025;-84
2022/05/10 03:27:09;;;;;;;10.18;8.25;;;;;;;;;;5040456;28;20108;-72
2022/05/10 03:29:36;;;;;;;10.63;7.63;;;;;;;;;;5051301;28;20184;-81
2022/05/10 03:32:02;;;;;;;14.63;7.80;;;;;;;;;;5040048;28;20022;-76
2022/05/10 03:37:13;;;;;;;22.05;15.75;;;;;;;;;;5042796;28;20056;-83
2022/05/10 03:39:39;;;;;;;23.10;13.05;;;;;;;;;;5045077;28;20029;-75
2022/05/10 03:42:06;;;;;;;13.75;9.73;;;;;;;;;;5035182;28;20032;-72
2022/05/10 03:44:32;;;;;;;16.85;9.52;;;;;;;;;;5045864;28;20064;-72
2022/05/10 03:46:58;;;;;;;12.88;8.20;;;;;;;;;;5034155;28;20021;-80
2022/05/10 03:49:24;;;;;;;11.40;8.38;;;;;;;;;;5035911;28;20045;-76
2022/05/10 03:51:50;;;;;;;12.80;9.15;;;;;;;;;;5043368;28;20033;-72
2022/05/10 03:54:17;;;;;;;16.60;9.20;;;;;;;;;;5045556;28;20047;-72
2022/05/10 03:56:43;;;;;;;11.93;9.40;;;;;;;;;;5039664;28;20459;-71
2022/05/10 03:59:12;;;;;;;13.48;9.18;;;;;;;;;;5043466;28;20467;-73
2022/05/10 04:01:38;;;;;;;14.95;9.70;;;;;;;;;;5035289;28;20033;-82
2022/05/10 04:04:04;;;;;;;11.93;9.18;;;;;;;;;;5038556;28;20028;-74
2022/05/10 04:06:30;;;;;;;12.27;9.40;;;;;;;;;;5047305;28;20565;-82
2022/05/10 04:08:56;;;;;;;12.88;9.60;;;;;;;;;;5033844;28;20060;-83
2022/05/10 04:11:22;;;;;;;16.27;9.75;;;;;;;;;;5042888;28;20025;-77
2022/05/10 04:13:49;;;;;;;13.23;9.38;;;;;;;;;;5047298;28;20522;-72
2022/05/10 04:16:16;;;;;;;12.48;9.52;;;;;;;;;;5039651;28;20030;-73
2022/05/10 04:18:44;;;;;;;11.75;9.63;;;;;;;;;;5038085;28;20021;-84
2022/05/10 04:21:11;;;;;;;13.70;9.82;;;;;;;;;;5035896;28;20049;-72
2022/05/10 04:23:37;;;;;;;14.63;9.75;;;;;;;;;;5034969;28;20042;-83
2022/05/10 04:26:04;;;;;;;13.88;9.75;;;;;;;;;;5044707;28;20463;-83
2022/05/10 04:28:31;;;;;;;14.40;10.05;;;;;;;;;;5034984;28;20029;-81
2022/05/10 04:30:57;;;;;;;14.23;9.88;;;;;;;;;;5050044;28;20029;-72
2022/05/10 04:33:23;;;;;;;14.13;9.73;;;;;;;;;;5038845;28;20025;-72
2022/05/10 04:35:49;;;;;;;14.88;10.27;;;;;;;;;;5032800;28;20025;-72
2022/05/10 04:38:15;;;;;;;18.80;10.30;;;;;;;;;;5034245;28;20033;-81
2022/05/10 04:43:25;;;;;;;16.95;12.52;;;;;;;;;;5039505;28;20482;-72
2022/05/10 04:45:51;;;;;;;16.05;10.52;;;;;;;;;;5033188;28;20079;-77
2022/05/10 04:48:17;;;;;;;13.93;10.05;;;;;;;;;;5040246;28;20383;-77
2022/05/10 04:50:44;;;;;;;15.07;9.85;;;;;;;;;;5041775;28;20394;-72
2022/05/10 04:53:10;;;;;;;13.55;10.10;;;;;;;;;;5041522;28;20472;-73
2022/05/10 04:55:36;;;;;;;13.57;9.43;;;;;;;;;;5037054;28;20025;-74
2022/05/10 04:58:02;;;;;;;15.48;9.60;;;;;;;;;;5043753;28;20100;-75
2022/05/10 05:00:29;;;;;;;16.05;10.02;;;;;;;;;;5041620;28;20029;-73
2022/05/10 05:02:55;;;;;;;14.73;9.40;;;;;;;;;;5041177;28;20136;-73
2022/05/10 05:05:22;;;;;;;20.20;10.75;;;;;;;;;;5037775;28;20410;-72
2022/05/10 05:07:49;;;;;;;20.35;10.23;;;;;;;;;;5043042;28;20049;-73
2022/05/10 05:10:15;;;;;;;14.23;10.10;;;;;;;;;;5035614;28;20049;-75
2022/05/10 05:12:41;;;;;;;18.48;10.40;;;;;;;;;;5038819;28;20018;-79
2022/05/10 05:15:09;;;;;;;13.65;9.30;;;;;;;;;;5035505;28;20394;-72
2022/05/10 05:17:35;;;;;;;15.95;10.80;;;;;;;;;;5040623;28;20072;-73
2022/05/10 05:20:01;;;;;;;14.43;10.25;;;;;;;;;;5042400;28;20021;-76
2022/05/10 05:22:28;;;;;;;12.90;9.70;;;;;;;;;;5039358;28;20066;-78
2022/05/10 05:24:54;;;;;;;13.95;9.75;;;;;;;;;;5046515;28;20414;-77
2022/05/10 05:27:20;;;;;;;17.00;9.15;;;;;;;;;;5045667;28;20129;-73
2022/05/10 05:29:47;;;;;;;14.98;10.18;;;;;;;;;;5041833;28;20546;-76
2022/05/10 05:32:14;;;;;;;16.20;10.57;;;;;;;;;;5043337;28;20021;-73
2022/05/10 05:34:40;;;;;;;18.20;10.90;;;;;;;;;;5040243;28;20060;-77
2022/05/10 05:39:50;;;;;;;11.98;9.85;;;;;;;;;;5036801;28;20064;-71
2022/05/10 05:42:18;;;;;;;15.00;10.35;;;;;;;;;;5040484;28;20518;-72
2022/05/10 05:44:47;;;;;;;15.57;9.32;;;;;;;;;;5041004;28;20028;-80
2022/05/10 05:47:15;;;;;;;14.30;11.30;;;;;;;;;;5037259;28;20143;-79
2022/05/10 05:49:41;;;;;;;13.82;9.82;;;;;;;;;;5046206;28;20063;-90
2022/05/10 05:52:07;;;;;;;21.88;10.07;;;;;;;;;;5039348;28;20032;-73
2022/05/10 05:54:33;;;;;;;14.38;9.68;;;;;;;;;;5038969;28;20036;-74
2022/05/10 05:57:03;;;;;;;21.02;11.40;;;;;;;;;;5041222;28;20371;-74
2022/05/10 05:59:29;;;;;;;25.77;12.02;;;;;;;;;;5041631;28;20029;-72
2022/05/10 06:01:56;;;;;;;16.42;9.38;;;;;;;;;;5040016;28;20029;-78
2022/05/10 06:04:22;;;;;;;46.33;25.42;;;;;;;;;;5039484;28;20033;-73
2022/05/10 06:06:48;;;;;;;18.63;11.50;;;;;;;;;;5048295;28;20099;-72
2022/05/10 06:09:14;;;;;;;17.85;12.43;;;;;;;;;;5043141;28;20125;-73
2022/05/10 06:11:41;;;;;;;19.77;11.52;;;;;;;;;;5040747;28;20036;-74
2022/05/10 06:14:08;;;;;;;19.77;9.05;;;;;;;;;;5042946;28;20033;-83
2022/05/10 06:16:34;;;;;;;12.68;9.18;;;;;;;;;;5042908;28;20395;-90
2022/05/10 06:19:00;;;;;;;17.15;9.15;;;;;;;;;;5047465;28;20124;-93
2022/05/10 06:21:26;;;;;;;15.02;10.65;;;;;;;;;;5039889;28;20028;-80
2022/05/10 06:23:52;;;;;;;14.40;8.18;;;;;;;;;;5037085;28;20022;-82
2022/05/10 06:26:18;;;;;;;11.55;8.35;;;;;;;;;;5036095;28;20106;-81
2022/05/10 06:28:44;;;;;;;14.68;8.13;;;;;;;;;;5043847;28;20043;-80
2022/05/10 06:31:10;;;;;;;11.98;8.35;;;;;;;;;;5038146;28;20069;-74
2022/05/10 06:33:36;;;;;;;12.38;7.78;;;;;;;;;;5037084;28;20079;-73
2022/05/10 06:36:03;;;;;;;11.20;7.00;;;;;;;;;;5041744;28;20025;-74
2022/05/10 06:38:29;;;;;;;12.43;8.30;;;;;;;;;;5037744;28;20545;-76
2022/05/10 06:41:01;;;;;;;11.30;6.70;;;;;;;;;;5041302;28;20439;-84
2022/05/10 06:43:28;;;;;;;14.35;6.60;;;;;;;;;;5045342;28;20355;-84
2022/05/10 06:45:57;;;;;;;12.93;7.07;;;;;;;;;;5044946;28;20024;-81
2022/05/10 06:48:24;;;;;;;16.47;7.00;;;;;;;;;;5041323;28;20079;-77
2022/05/10 06:50:50;;;;;;;9.35;5.78;;;;;;;;;;5047862;28;20403;-76
2022/05/10 06:53:18;;;;;;;15.15;6.00;;;;;;;;;;5036546;28;20030;-76
2022/05/10 06:55:44;;;;;;;10.85;5.00;;;;;;;;;;5042642;28;20028;-78
2022/05/10 06:58:11;;;;;;;10.25;5.50;;;;;;;;;;5039636;28;20026;-76
2022/05/10 07:00:38;;;;;;;9.80;5.07;;;;;;;;;;5041535;28;20036;-76
2022/05/10 07:03:15;;;;;;;12.90;5.65;;;;;;;;;;5038314;28;20032;-75
2022/05/10 07:05:43;;;;;;;28.05;6.57;;;;;;;;;;5041804;28;20099;-76
2022/05/10 07:08:09;;;;;;;12.38;6.45;;;;;;;;;;5043423;28;20036;-76
2022/05/10 07:10:35;;;;;;;11.82;6.30;;;;;;;;;;5042289;28;20488;-75
2022/05/10 07:13:01;;;;;;;11.23;7.20;;;;;;;;;;5039857;28;20021;-79
2022/05/10 07:15:27;;;;;;;8.38;6.97;;;;;;;;;;5040770;28;20032;-80
2022/05/10 07:17:54;;;;;;;9.60;7.40;;;;;;;;;;5041808;28;20021;-79
2022/05/10 07:20:20;;;;;;;12.60;7.80;;;;;;;;;;5045470;28;20104;-80
2022/05/10 07:22:46;;;;;;;11.18;7.28;;;;;;;;;;5036261;28;20033;-79
2022/05/10 07:25:14;;;;;;;11.07;7.65;;;;;;;;;;5051539;28;20032;-79
2022/05/10 07:27:40;;;;;;;14.48;8.60;;;;;;;;;;5041755;28;20036;-77
2022/05/10 07:30:07;;;;;;;11.10;8.10;;;;;;;;;;5041831;28;20486;-77
2022/05/10 07:32:33;;;;;;;17.10;9.52;;;;;;;;;;5044392;28;20036;-77
2022/05/10 07:35:02;;;;;;;18.52;10.32;;;;;;;;;;5045725;28;20021;-80
2022/05/10 07:37:28;;;;;;;14.85;8.73;;;;;;;;;;5039176;28;20079;-79
2022/05/10 07:39:54;;;;;;;14.63;9.63;;;;;;;;;;5045577;28;20043;-78
2022/05/10 07:42:20;;;;;;;16.85;9.30;;;;;;;;;;5036285;28;20009;-77
2022/05/10 07:44:49;;;;;;;16.95;8.85;;;;;;;;;;5048334;28;20047;-77
2022/05/10 07:47:15;;;;;;;12.55;8.75;;;;;;;;;;5043861;28;20022;-75
2022/05/10 07:49:42;;;;;;;15.38;8.65;;;;;;;;;;5044305;28;20395;-76
2022/05/10 07:52:08;;;;;;;21.00;8.23;;;;;;;;;;5043559;28;20025;-77
2022/05/10 07:54:35;;;;;;;17.23;8.57;;;;;;;;;;5046025;28;20033;-77
2022/05/10 07:57:02;;;;;;;19.40;8.82;;;;;;;;;;5036218;28;20037;-77
2022/05/10 07:59:29;;;;;;;16.80;8.68;;;;;;;;;;5043208;28;20021;-77
2022/05/10 08:01:55;;;;;;;15.48;7.88;;;;;;;;;;5039951;28;20039;-80
2022/05/10 08:04:21;;;;;;;18.25;8.23;;;;;;;;;;5050512;28;20501;-76
2022/05/10 08:06:47;;;;;;;16.20;8.32;;;;;;;;;;5042757;28;20391;-80
2022/05/10 08:09:14;;;;;;;12.25;6.88;;;;;;;;;;5040802;28;20478;-88
2022/05/10 08:11:41;;;;;;;11.57;6.15;;;;;;;;;;5038047;28;20021;-87
2022/05/10 08:14:07;;;;;;;11.55;6.35;;;;;;;;;;5046025;28;20036;-79
2022/05/10 08:16:33;;;;;;;10.90;6.32;;;;;;;;;;5046319;28;20074;-78
2022/05/10 08:18:59;;;;;;;11.30;6.50;;;;;;;;;;5038859;28;20033;-78
2022/05/10 08:21:25;;;;;;;9.07;6.28;;;;;;;;;;5037525;28;20090;-78
2022/05/10 08:23:55;;;;;;;15.68;6.25;;;;;;;;;;5037365;28;20470;-76
2022/05/10 08:26:21;;;;;;;13.50;6.35;;;;;;;;;;5040448;28;20087;-75
2022/05/10 08:28:47;;;;;;;15.07;6.60;;;;;;;;;;5035143;28;20085;-77
2022/05/10 08:31:14;;;;;;;9.32;5.88;;;;;;;;;;5033685;28;20503;-76
2022/05/10 08:33:41;;;;;;;11.52;6.32;;;;;;;;;;5033551;28;20028;-75
2022/05/10 08:36:08;;;;;;;9.05;6.20;;;;;;;;;;5039861;28;20037;-76
2022/05/10 08:38:34;;;;;;;8.30;5.70;;;;;;;;;;5034017;28;20018;-77
2022/05/10 08:41:19;;;;;;;17.73;6.72;;;;;;;;;;5041972;28;20076;-78
2022/05/10 08:43:47;;;;;;;11.07;5.75;;;;;;;;;;5037746;28;20029;-78
2022/05/10 08:46:16;;;;;;;10.30;5.88;;;;;;;;;;5033100;28;20029;-76
2022/05/10 08:48:43;;;;;;;12.38;5.97;;;;;;;;;;5040538;28;20096;-76
2022/05/10 08:51:09;;;;;;;14.73;6.25;;;;;;;;;;5037710;28;20041;-78
2022/05/10 08:53:35;;;;;;;14.88;9.07;;;;;;;;;;5039369;28;20037;-76
2022/05/10 08:56:06;;;;;;;11.82;5.35;;;;;;;;;;5033212;28;20065;-81
2022/05/10 08:58:33;;;;;;;14.40;5.53;;;;;;;;;;5037260;28;20025;-75
2022/05/10 09:01:02;;;;;;;11.68;5.80;;;;;;;;;;5035396;28;20467;-80
2022/05/10 09:03:40;;;;;;;12.15;5.50;;;;;;;;;;5032826;28;20017;-82
2022/05/10 09:06:29;;;;;;;10.38;5.75;;;;;;;;;;5032561;28;20046;-79
2022/05/10 09:09:03;;;;;;;6.63;5.57;;;;;;;;;;5026323;28;20415;-76
2022/05/10 09:11:34;;;;;;;14.63;5.85;;;;;;;;;;5021119;28;20041;-78
2022/05/10 09:14:00;;;;;;;8.73;5.63;;;;;;;;;;5030102;28;20380;-88
2022/05/10 09:16:26;;;;;;;9.23;5.53;;;;;;;;;;5012147;28;20083;-90
2022/05/10 09:18:53;;;;;;;6.53;5.38;;;;;;;;;;5018719;28;20125;-84
2022/05/10 09:21:23;;;;;;;10.00;5.35;;;;;;;;;;5012157;28;20029;-89
2022/05/10 09:23:55;;;;;;;9.73;5.38;;;;;;;;;;5030458;28;20049;-78
2022/05/10 09:26:23;;;;;;;10.40;5.90;;;;;;;;;;5025761;28;20042;-79
2022/05/10 09:28:58;;;;;;;26.33;6.53;;;;;;;;;;5026771;28;20056;-79
2022/05/10 09:37:31;;;;;;;9.52;5.32;;;;;;;;;;5029316;28;20407;-84
2022/05/10 09:39:57;;;;;;;10.38;5.38;;;;;;;;;;4988283;28;20496;-79
2022/05/10 09:42:27;;;;;;;9.57;5.65;;;;;;;;;;4995212;28;20053;-77
2022/05/10 09:45:01;;;;;;;11.50;5.18;;;;;;;;;;4979201;28;20162;-78
2022/05/10 09:47:27;;;;;;;8.57;5.40;;;;;;;;;;4976305;28;20062;-78
2022/05/10 09:49:54;;;;;;;10.00;5.38;;;;;;;;;;4975937;28;20141;-82
2022/05/10 09:52:27;;;;;;;12.88;5.93;;;;;;;;;;4976037;28;20030;-82
2022/05/10 09:54:54;;;;;;;10.90;5.88;;;;;;;;;;4982613;28;20037;-87
2022/05/10 09:57:37;;;;;;;12.60;5.47;;;;;;;;;;4980058;28;20065;-88
2022/05/10 10:00:05;;;;;;;9.27;5.38;;;;;;;;;;4988303;28;20023;-90
2022/05/10 10:02:35;;;;;;;9.23;5.38;;;;;;;;;;4986440;28;20038;-78
2022/05/10 10:05:25;;;;;;;12.57;5.43;;;;;;;;;;4991464;28;20030;-78
2022/05/10 10:07:56;;;;;;;12.00;5.28;;;;;;;;;;4974632;28;21639;-93
2022/05/10 10:10:28;;;;;;;11.27;5.30;;;;;;;;;;4969784;28;20144;-82
2022/05/10 10:12:54;;;;;;;17.63;5.85;;;;;;;;;;4967066;28;20138;-77
2022/05/10 10:15:41;;;;;;;18.42;5.63;;;;;;;;;;4964705;28;20089;-78
2022/05/10 10:18:11;;;;;;;7.07;5.32;;;;;;;;;;4987588;28;20025;-86
2022/05/10 10:20:48;;;;;;;8.30;5.43;;;;;;;;;;4999936;28;20631;-81
2022/05/10 10:23:26;;;;;;;13.20;5.68;;;;;;;;;;5011771;28;20156;-80
2022/05/10 10:25:54;;;;;;;11.80;5.28;;;;;;;;;;5004114;28;20113;-78
2022/05/10 10:28:29;;;;;;;21.35;5.78;;;;;;;;;;4986165;28;20406;-76
2022/05/10 10:30:57;;;;;;;9.15;5.40;;;;;;;;;;4997194;28;20132;-77
2022/05/10 10:33:35;;;;;;;21.63;7.15;;;;;;;;;;5012138;28;20519;-76
2022/05/10 10:36:11;;;;;;;10.38;6.60;;;;;;;;;;5008798;28;20030;-75
2022/05/10 10:38:56;;;;;;;8.85;6.03;;;;;;;;;;5005141;28;20140;-78
2022/05/10 10:41:33;;;;;;;13.07;7.43;;;;;;;;;;5013283;28;20021;-80
2022/05/10 10:44:19;;;;;;;15.75;7.65;;;;;;;;;;5014955;28;20044;-75
2022/05/10 10:46:54;;;;;;;9.02;6.22;;;;;;;;;;5038036;28;20029;-85
2022/05/10 10:49:23;;;;;;;11.07;6.00;;;;;;;;;;5053193;28;20033;-85
2022/05/10 10:51:50;;;;;;;26.60;8.52;;;;;;;;;;5046878;28;20020;-83
2022/05/10 10:54:18;;;;;;;14.18;6.78;;;;;;;;;;5053688;28;20040;-77
2022/05/10 10:57:03;;;;;;;13.68;6.22;;;;;;;;;;5053113;28;20021;-81
2022/05/10 10:59:35;;;;;;;13.55;6.00;;;;;;;;;;5042418;28;20082;-78
2022/05/10 11:02:05;;;;;;;8.52;5.07;;;;;;;;;;5040998;28;20386;-85
2022/05/10 11:04:47;;;;;;;9.15;4.70;;;;;;;;;;5044085;28;20026;-86
2022/05/10 11:07:18;;;;;;;9.85;5.22;;;;;;;;;;5043168;28;20376;-77
2022/05/10 11:09:44;;;;;;;11.95;5.35;;;;;;;;;;5034502;28;20033;-77
2022/05/10 11:12:22;;;;;;;7.70;4.85;;;;;;;;;;5034619;28;20101;-81
2022/05/10 11:14:51;;;;;;;13.82;5.35;;;;;;;;;;5042469;28;20083;-82
2022/05/10 11:17:23;;;;;;;9.70;5.90;;;;;;;;;;5038582;28;20360;-79
2022/05/10 11:20:10;;;;;;;11.18;5.40;;;;;;;;;;5048151;28;20475;-85
2022/05/10 11:22:38;;;;;;;11.10;4.60;;;;;;;;;;5039886;28;20428;-79
2022/05/10 11:25:22;;;;;;;6.55;3.80;;;;;;;;;;5034686;28;20023;-85
2022/05/10 11:27:55;;;;;;;9.35;3.90;;;;;;;;;;5042598;28;20026;-86
2022/05/10 11:30:28;;;;;;;5.55;3.65;;;;;;;;;;5040696;28;20042;-84
2022/05/10 11:33:07;;;;;;;7.63;4.50;;;;;;;;;;5033959;28;20526;-81
2022/05/10 11:35:43;;;;;;;8.65;4.47;;;;;;;;;;5037825;28;20021;-84
2022/05/10 11:38:18;;;;;;;7.90;4.28;;;;;;;;;;5035531;28;20430;-77
2022/05/10 11:40:47;;;;;;;5.90;4.00;;;;;;;;;;5039234;28;20052;-76
2022/05/10 11:43:26;;;;;;;7.53;4.20;;;;;;;;;;5034421;28;20071;-77
2022/05/10 11:45:58;;;;;;;13.43;4.30;;;;;;;;;;5034040;28;20024;-82
2022/05/10 11:48:39;;;;;;;14.07;4.28;;;;;;;;;;5040740;28;20034;-77
2022/05/10 11:54:04;;;;;;;12.40;4.65;;;;;;;;;;5033901;28;20028;-78
2022/05/10 11:56:34;;;;;;;6.60;4.03;;;;;;;;;;5037547;28;20024;-80
2022/05/10 11:59:04;;;;;;;8.13;4.53;;;;;;;;;;5044990;28;20474;-82
2022/05/10 12:01:50;;;;;;;9.77;4.38;;;;;;;;;;5036781;28;20029;-83
2022/05/10 12:04:35;;;;;;;6.55;4.03;;;;;;;;;;5042961;28;20041;-78
2022/05/10 12:07:19;;;;;;;7.72;4.40;;;;;;;;;;5033686;28;20451;-85
2022/05/10 12:09:59;;;;;;;8.27;4.45;;;;;;;;;;5033628;28;20264;-81
2022/05/10 12:12:31;;;;;;;6.68;4.60;;;;;;;;;;5036093;28;20025;-77
2022/05/10 12:23:47;;;;;;;11.73;5.20;;;;;;;;;;5038008;28;20083;-85
2022/05/10 12:26:32;;;;;;;13.20;4.97;;;;;;;;;;5041390;28;20036;-74
2022/05/10 12:28:58;;;;;;;15.93;5.30;;;;;;;;;;5033877;28;20033;-84
2022/05/10 12:31:27;;;;;;;14.38;6.18;;;;;;;;;;5036839;28;20430;-84
2022/05/10 12:33:58;;;;;;;9.25;5.38;;;;;;;;;;5045985;28;20032;-78
2022/05/10 12:36:33;;;;;;;12.27;5.72;;;;;;;;;;5036832;28;20033;-83
2022/05/10 12:39:17;;;;;;;18.75;6.57;;;;;;;;;;5043711;28;20025;-78
2022/05/10 12:41:52;;;;;;;11.65;6.50;;;;;;;;;;5047073;28;20112;-80
2022/05/10 12:44:24;;;;;;;15.57;6.95;;;;;;;;;;5036577;28;20532;-76
2022/05/10 12:47:03;;;;;;;9.30;6.85;;;;;;;;;;5034532;28;20029;-81
2022/05/10 12:49:38;;;;;;;13.02;6.80;;;;;;;;;;5044103;28;20026;-76
2022/05/10 12:52:20;;;;;;;15.88;5.38;;;;;;;;;;5040911;28;20021;-84
2022/05/10 12:54:47;;;;;;;11.38;7.07;;;;;;;;;;5033895;28;20028;-76
2022/05/10 12:57:23;;;;;;;9.80;6.43;;;;;;;;;;5040259;28;20503;-80
2022/05/10 12:59:49;;;;;;;12.57;7.25;;;;;;;;;;5040766;28;20033;-86
2022/05/10 13:02:15;;;;;;;10.57;4.88;;;;;;;;;;5050933;28;20029;-80
2022/05/10 13:04:49;;;;;;;14.68;5.15;;;;;;;;;;5034915;28;20033;-80
2022/05/10 13:07:23;;;;;;;9.43;4.93;;;;;;;;;;5041606;28;20053;-76
2022/05/10 13:09:57;;;;;;;7.00;5.60;;;;;;;;;;5032388;28;20533;-77
2022/05/10 13:12:25;;;;;;;8.52;5.90;;;;;;;;;;5034623;28;20032;-77
2022/05/10 13:14:57;;;;;;;7.90;5.07;;;;;;;;;;5040178;28;20592;-76
2022/05/10 13:17:30;;;;;;;7.03;4.45;;;;;;;;;;5033591;28;20037;-85
2022/05/10 13:19:57;;;;;;;9.50;5.47;;;;;;;;;;5043537;28;20032;-76
2022/05/10 13:22:25;;;;;;;8.25;5.20;;;;;;;;;;5036632;28;20053;-77
2022/05/10 13:24:53;;;;;;;9.27;4.90;;;;;;;;;;5043772;28;20483;-83
2022/05/10 13:27:26;;;;;;;7.93;4.60;;;;;;;;;;5036127;28;20080;-77
2022/05/10 13:29:52;;;;;;;7.70;4.57;;;;;;;;;;5039029;28;20040;-82
2022/05/10 13:32:30;;;;;;;10.98;4.70;;;;;;;;;;5040206;28;21719;-77
2022/05/10 13:35:01;;;;;;;7.93;4.40;;;;;;;;;;5039369;28;20108;-82
2022/05/10 13:37:29;;;;;;;7.28;4.68;;;;;;;;;;5033022;28;20025;-85
2022/05/10 13:39:57;;;;;;;8.73;4.00;;;;;;;;;;5032356;28;20479;-79
2022/05/10 13:42:23;;;;;;;7.72;4.57;;;;;;;;;;5039383;28;20037;-77
2022/05/10 13:44:50;;;;;;;6.80;4.75;;;;;;;;;;5032473;28;20025;-77
2022/05/10 13:47:23;;;;;;;11.57;5.30;;;;;;;;;;5040526;28;20088;-77
2022/05/10 13:49:49;;;;;;;29.45;7.85;;;;;;;;;;5035744;28;20129;-80
2022/05/10 13:52:36;;;;;;;18.85;6.13;;;;;;;;;;5032051;28;20033;-82
2022/05/10 13:55:06;;;;;;;25.75;6.88;;;;;;;;;;5036273;28;20053;-85
2022/05/10 13:57:33;;;;;;;14.45;6.32;;;;;;;;;;5036002;28;20041;-81
2022/05/10 14:00:00;;;;;;;22.85;7.57;;;;;;;;;;5035496;28;20082;-81
2022/05/10 14:02:27;;;;;;;13.27;6.20;;;;;;;;;;5037253;28;20104;-81
2022/05/10 14:04:55;;;;;;;31.13;7.70;;;;;;;;;;5036185;28;20473;-80
2022/05/10 14:07:26;;;;;;;29.90;8.50;;;;;;;;;;5040145;28;20071;-81
2022/05/10 14:09:53;;;;;;;23.45;8.68;;;;;;;;;;5033641;28;20098;-83
2022/05/10 14:12:27;;;;;;;39.03;9.75;;;;;;;;;;5040433;28;20386;-76
2022/05/10 14:14:53;;;;;;;13.27;7.55;;;;;;;;;;5047235;28;20067;-73
2022/05/10 14:17:19;;;;;;;26.33;8.75;;;;;;;;;;5047167;28;20033;-76
2022/05/10 14:19:48;;;;;;;14.18;8.00;;;;;;;;;;5041261;28;20044;-74
2022/05/10 14:22:27;;;;;;;26.65;9.32;;;;;;;;;;5040793;28;20515;-76
2022/05/10 14:24:54;;;;;;;18.50;7.95;;;;;;;;;;5047798;28;20062;-79
2022/05/10 14:27:23;;;;;;;22.42;9.27;;;;;;;;;;5042718;28;20045;-83
2022/05/10 14:29:51;;;;;;;22.02;9.73;;;;;;;;;;5043075;28;20153;-75
2022/05/10 14:32:20;;;;;;;23.10;8.80;;;;;;;;;;5043829;28;20112;-80
2022/05/10 14:34:48;;;;;;;28.58;9.45;;;;;;;;;;5043001;28;20038;-73
2022/05/10 14:37:33;;;;;;;31.50;9.63;;;;;;;;;;5040300;28;20022;-76
2022/05/10 14:40:01;;;;;;;14.65;8.02;;;;;;;;;;5040462;28;20075;-77
2022/05/10 14:42:27;;;;;;;22.80;8.20;;;;;;;;;;5036256;28;20524;-75
2022/05/10 14:44:54;;;;;;;19.30;9.05;;;;;;;;;;5038538;28;20026;-75
2022/05/10 14:47:23;;;;;;;20.13;9.07;;;;;;;;;;5036245;28;20083;-76
2022/05/10 14:49:50;;;;;;;19.05;8.55;;;;;;;;;;5045134;28;20170;-75
2022/05/10 14:52:24;;;;;;;15.18;8.23;;;;;;;;;;5042037;28;20033;-85
2022/05/10 14:54:50;;;;;;;16.55;8.93;;;;;;;;;;5038818;28;20060;-85
2022/05/10 14:57:21;;;;;;;19.70;10.05;;;;;;;;;;5049873;28;20088;-85
2022/05/10 14:59:52;;;;;;;18.10;8.90;;;;;;;;;;5050061;28;20060;-85
2022/05/10 15:02:21;;;;;;;24.77;9.65;;;;;;;;;;5044707;28;20029;-85
2022/05/10 15:04:47;;;;;;;21.30;9.10;;;;;;;;;;5043762;28;20055;-85
2022/05/10 15:07:13;;;;;;;14.63;8.38;;;;;;;;;;5042606;28;20586;-84
2022/05/10 15:09:39;;;;;;;18.33;7.72;;;;;;;;;;5043123;28;20482;-84
2022/05/10 15:14:51;;;;;;;12.77;7.03;;;;;;;;;;5044296;28;20075;-85
2022/05/10 15:17:18;;;;;;;12.15;6.97;;;;;;;;;;5041193;28;20086;-85